createdAt,value
2022-11-16T00:01:41.274Z,58.70
2022-11-16T00:04:09.628Z,59.00
2022-11-16T00:06:36.293Z,59.10
2022-11-16T00:09:22.200Z,58.70
2022-11-16T00:11:49.827Z,58.60
2022-11-16T00:14:16.990Z,58.70
2022-11-16T00:16:43.648Z,58.70
2022-11-16T00:19:11.005Z,58.70
2022-11-16T00:21:38.084Z,58.80
2022-11-16T00:24:05.497Z,58.70
2022-11-16T00:26:32.411Z,58.90
2022-11-16T00:28:59.138Z,58.70
2022-11-16T00:31:25.773Z,58.60
2022-11-16T00:33:52.800Z,58.80
2022-11-16T00:36:19.439Z,58.60
2022-11-16T00:38:46.113Z,58.60
2022-11-16T00:41:14.434Z,58.60
2022-11-16T00:43:41.124Z,58.60
2022-11-16T00:46:08.674Z,58.90
2022-11-16T00:48:35.606Z,58.60
2022-11-16T00:51:02.538Z,59.00
2022-11-16T00:53:29.309Z,58.70
2022-11-16T00:55:55.995Z,58.50
2022-11-16T00:58:22.682Z,58.10
2022-11-16T01:00:49.551Z,58.30
2022-11-16T01:03:16.347Z,58.20
2022-11-16T01:05:43.298Z,58.40
2022-11-16T01:08:10.231Z,58.50
2022-11-16T01:10:38.197Z,58.40
2022-11-16T01:13:04.818Z,58.50
2022-11-16T01:15:31.493Z,58.20
2022-11-16T01:17:58.113Z,58.50
2022-11-16T01:20:26.232Z,58.40
2022-11-16T01:22:52.898Z,58.40
2022-11-16T01:25:19.665Z,58.50
2022-11-16T01:27:46.405Z,58.10
2022-11-16T01:30:13.840Z,58.60
2022-11-16T01:32:40.462Z,58.60
2022-11-16T01:35:07.567Z,58.40
2022-11-16T01:37:34.286Z,57.90
2022-11-16T01:40:00.926Z,58.00
2022-11-16T01:42:28.929Z,58.40
2022-11-16T01:45:00.884Z,58.90
2022-11-16T01:47:27.954Z,58.90
2022-11-16T01:49:58.109Z,58.70
2022-11-16T01:52:27.132Z,58.60
2022-11-16T01:54:54.289Z,58.40
2022-11-16T01:57:23.433Z,58.50
2022-11-16T01:59:51.953Z,58.40
2022-11-16T02:02:18.626Z,59.10
2022-11-16T02:04:45.881Z,58.60
2022-11-16T02:07:15.752Z,58.40
2022-11-16T02:09:54.621Z,58.40
2022-11-16T02:12:36.697Z,58.70
2022-11-16T02:15:08.169Z,58.60
2022-11-16T02:17:37.723Z,58.70
2022-11-16T02:20:07.407Z,58.80
2022-11-16T02:22:40.119Z,58.80
2022-11-16T02:25:12.947Z,58.60
2022-11-16T02:28:03.547Z,58.50
2022-11-16T02:30:30.250Z,58.90
2022-11-16T02:33:00.509Z,58.90
2022-11-16T02:35:29.203Z,58.50
2022-11-16T02:38:07.831Z,58.60
2022-11-16T02:40:35.528Z,58.70
2022-11-16T02:43:07.373Z,58.30
2022-11-16T02:45:36.518Z,58.50
2022-11-16T02:48:05.790Z,58.50
2022-11-16T02:50:33.413Z,58.40
2022-11-16T02:53:00.076Z,58.00
2022-11-16T02:55:28.389Z,58.50
2022-11-16T02:57:57.355Z,58.40
2022-11-16T03:00:25.776Z,58.60
2022-11-16T03:03:07.705Z,58.50
2022-11-16T03:05:44.485Z,58.40
2022-11-16T03:08:18.309Z,58.20
2022-11-16T03:11:05.284Z,58.20
2022-11-16T03:13:33.419Z,58.10
2022-11-16T03:16:01.190Z,58.60
2022-11-16T03:18:29.130Z,59.30
2022-11-16T03:21:02.186Z,58.60
2022-11-16T03:23:29.347Z,58.70
2022-11-16T03:25:57.275Z,58.40
2022-11-16T03:28:27.476Z,58.50
2022-11-16T03:31:04.260Z,58.50
2022-11-16T03:33:32.627Z,58.40
2022-11-16T03:36:06.028Z,58.20
2022-11-16T03:38:34.142Z,58.60
2022-11-16T03:41:03.168Z,58.40
2022-11-16T03:43:30.856Z,58.40
2022-11-16T03:45:58.019Z,58.20
2022-11-16T03:48:24.965Z,58.50
2022-11-16T03:50:51.695Z,58.20
2022-11-16T03:53:18.392Z,58.40
2022-11-16T03:55:49.614Z,58.20
2022-11-16T03:58:18.763Z,58.20
2022-11-16T04:00:45.678Z,58.40
2022-11-16T04:03:12.840Z,58.90
2022-11-16T04:05:58.510Z,58.90
2022-11-16T04:08:57.681Z,58.30
2022-11-16T04:11:42.823Z,58.30
2022-11-16T04:14:31.931Z,58.10
2022-11-16T04:17:17.232Z,58.20
2022-11-16T04:20:02.857Z,58.40
2022-11-16T04:22:51.198Z,58.40
2022-11-16T04:25:21.496Z,58.20
2022-11-16T04:28:06.961Z,58.30
2022-11-16T04:30:52.325Z,58.30
2022-11-16T04:33:37.488Z,58.30
2022-11-16T04:36:22.938Z,58.90
2022-11-16T04:38:49.605Z,58.70
2022-11-16T04:41:35.032Z,58.60
2022-11-16T04:44:01.735Z,58.70
2022-11-16T04:46:47.177Z,58.50
2022-11-16T04:49:13.868Z,58.40
2022-11-16T04:51:40.574Z,59.00
2022-11-16T04:54:07.246Z,58.90
2022-11-16T04:56:33.969Z,58.90
2022-11-16T04:59:00.819Z,59.00
2022-11-16T05:01:48.801Z,58.70
2022-11-16T05:04:15.473Z,59.10
2022-11-16T05:06:42.195Z,58.50
2022-11-16T05:09:08.969Z,58.70
2022-11-16T05:11:36.871Z,58.60
2022-11-16T05:14:03.656Z,58.90
2022-11-16T05:16:30.779Z,59.30
2022-11-16T05:19:15.933Z,59.10
2022-11-16T05:21:44.807Z,59.40
2022-11-16T05:24:30.156Z,59.40
2022-11-16T05:26:56.840Z,58.70
2022-11-16T05:29:23.570Z,58.90
2022-11-16T05:31:50.226Z,59.10
2022-11-16T05:34:16.869Z,59.40
2022-11-16T05:36:43.519Z,59.20
2022-11-16T05:39:10.973Z,59.30
2022-11-16T05:41:37.913Z,59.90
2022-11-16T05:44:04.556Z,59.30
2022-11-16T05:46:31.234Z,58.80
2022-11-16T05:48:58.029Z,58.90
2022-11-16T05:51:24.755Z,59.30
2022-11-16T05:53:51.398Z,60.00
2022-11-16T05:56:18.203Z,59.60
2022-11-16T05:58:46.015Z,59.40
2022-11-16T06:01:12.668Z,59.60
2022-11-16T06:03:39.423Z,59.50
2022-11-16T06:06:06.228Z,59.50
2022-11-16T06:08:33.202Z,59.10
2022-11-16T06:11:04.144Z,58.80
2022-11-16T06:13:31.614Z,59.60
2022-11-16T06:15:58.708Z,59.70
2022-11-16T06:18:25.459Z,59.50
2022-11-16T06:20:52.166Z,59.60
2022-11-16T06:23:18.899Z,59.70
2022-11-16T06:25:45.576Z,59.50
2022-11-16T06:28:12.391Z,59.20
2022-11-16T06:30:40.238Z,58.90
2022-11-16T06:33:06.897Z,59.60
2022-11-16T06:35:33.570Z,59.70
2022-11-16T06:38:00.269Z,59.70
2022-11-16T06:40:26.932Z,59.70
2022-11-16T06:42:54.027Z,59.50
2022-11-16T06:45:20.790Z,59.70
2022-11-16T06:47:47.489Z,59.60
2022-11-16T06:50:14.288Z,59.80
2022-11-16T06:52:40.933Z,59.70
2022-11-16T06:55:07.788Z,60.00
2022-11-16T06:57:35.913Z,59.60
2022-11-16T07:00:02.812Z,59.20
2022-11-16T07:02:29.483Z,59.60
2022-11-16T07:05:02.138Z,60.30
2022-11-16T07:07:30.149Z,60.80
2022-11-16T07:09:56.906Z,60.30
2022-11-16T07:12:23.575Z,60.20
2022-11-16T07:14:50.306Z,60.20
2022-11-16T07:17:16.946Z,60.10
2022-11-16T07:19:43.582Z,59.90
2022-11-16T07:22:10.305Z,60.10
2022-11-16T07:24:36.984Z,59.40
2022-11-16T07:27:03.652Z,59.90
2022-11-16T07:29:31.358Z,60.00
2022-11-16T07:31:58.024Z,60.00
2022-11-16T07:34:24.657Z,59.90
2022-11-16T07:36:51.343Z,59.90
2022-11-16T07:39:17.991Z,60.00
2022-11-16T07:41:45.267Z,59.80
2022-11-16T07:44:12.391Z,59.50
2022-11-16T07:46:47.929Z,59.30
2022-11-16T07:49:15.823Z,59.90
2022-11-16T07:51:42.538Z,60.00
2022-11-16T07:54:11.430Z,60.00
2022-11-16T07:56:38.187Z,59.90
2022-11-16T07:59:06.068Z,59.90
2022-11-16T08:01:33.477Z,60.10
2022-11-16T08:04:03.286Z,59.80
2022-11-16T08:06:31.282Z,59.20
2022-11-16T08:08:59.033Z,59.80
2022-11-16T08:11:25.859Z,60.10
2022-11-16T08:13:52.520Z,60.10
2022-11-16T08:16:20.650Z,60.00
2022-11-16T08:18:47.385Z,60.00
2022-11-16T08:21:15.035Z,59.90
2022-11-16T08:23:42.461Z,59.90
2022-11-16T08:26:11.030Z,59.50
2022-11-16T08:28:37.940Z,59.60
2022-11-16T08:31:09.066Z,60.10
2022-11-16T08:33:35.789Z,59.90
2022-11-16T08:36:12.530Z,60.10
2022-11-16T08:38:40.697Z,60.10
2022-11-16T08:41:07.608Z,59.90
2022-11-16T08:43:35.906Z,59.30
2022-11-16T08:46:03.207Z,59.60
2022-11-16T08:48:30.014Z,59.20
2022-11-16T08:51:16.843Z,59.50
2022-11-16T08:53:44.054Z,60.10
2022-11-16T08:56:13.265Z,60.20
2022-11-16T08:58:40.458Z,59.90
2022-11-16T09:01:11.145Z,59.90
2022-11-16T09:03:38.553Z,59.80
2022-11-16T09:06:05.890Z,59.40
2022-11-16T09:08:33.422Z,59.40
2022-11-16T09:11:03.472Z,59.60
2022-11-16T09:13:30.112Z,59.90
2022-11-16T09:15:57.546Z,59.90
2022-11-16T09:18:24.438Z,60.60
2022-11-16T09:20:51.175Z,60.10
2022-11-16T09:23:23.746Z,60.00
2022-11-16T09:25:51.788Z,59.80
2022-11-16T09:28:18.798Z,59.40
2022-11-16T09:30:46.500Z,59.70
2022-11-16T09:33:13.444Z,59.90
2022-11-16T09:35:40.343Z,59.90
2022-11-16T09:38:07.409Z,60.00
2022-11-16T09:40:36.535Z,59.90
2022-11-16T09:43:11.921Z,60.10
2022-11-16T09:45:42.988Z,59.50
2022-11-16T09:48:12.392Z,59.20
2022-11-16T09:50:43.367Z,59.10
2022-11-16T09:53:16.575Z,59.50
2022-11-16T09:55:51.905Z,59.40
2022-11-16T09:58:22.977Z,59.30
2022-11-16T10:00:53.272Z,59.60
2022-11-16T10:03:20.117Z,59.50
2022-11-16T10:05:51.524Z,59.40
2022-11-16T10:08:18.189Z,59.30
2022-11-16T10:11:03.744Z,59.20
2022-11-16T10:13:42.577Z,59.20
2022-11-16T10:16:28.050Z,59.20
2022-11-16T10:19:03.636Z,59.20
2022-11-16T10:21:35.028Z,59.30
2022-11-16T10:24:16.831Z,59.10
2022-11-16T10:26:53.725Z,59.10
2022-11-16T10:29:35.274Z,59.00
2022-11-16T10:32:02.030Z,59.00
2022-11-16T10:34:31.183Z,59.30
2022-11-16T10:37:00.436Z,59.40
2022-11-16T10:39:27.650Z,59.50
2022-11-16T10:41:56.122Z,59.30
2022-11-16T10:44:31.738Z,59.40
2022-11-16T10:47:21.869Z,59.40
2022-11-16T10:49:57.327Z,59.30
2022-11-16T10:52:24.254Z,59.20
2022-11-16T10:54:51.431Z,59.10
2022-11-16T10:57:18.600Z,59.50
2022-11-16T10:59:47.717Z,59.50
2022-11-16T11:02:34.951Z,59.50
2022-11-16T11:05:15.599Z,59.60
2022-11-16T11:07:44.905Z,59.70
2022-11-16T11:10:24.095Z,59.30
2022-11-16T11:13:05.969Z,59.30
2022-11-16T11:15:32.811Z,59.40
2022-11-16T11:18:19.456Z,59.70
2022-11-16T11:21:06.075Z,59.60
2022-11-16T11:23:43.406Z,59.70
2022-11-16T11:26:23.762Z,59.70
2022-11-16T11:28:50.878Z,59.50
2022-11-16T11:31:32.538Z,59.10
2022-11-16T11:34:02.326Z,59.00
2022-11-16T11:36:34.071Z,59.90
2022-11-16T11:39:00.798Z,59.80
2022-11-16T11:41:34.647Z,59.70
2022-11-16T11:44:03.408Z,59.70
2022-11-16T11:46:59.783Z,59.80
2022-11-16T11:49:23.206Z,59.60
2022-11-16T11:51:50.089Z,58.70
2022-11-16T11:54:21.090Z,59.10
2022-11-16T11:56:48.047Z,59.80
2022-11-16T11:59:18.162Z,59.50
2022-11-16T12:02:03.420Z,59.60
2022-11-16T12:04:49.184Z,59.70
2022-11-16T12:07:39.982Z,59.50
2022-11-16T12:10:15.751Z,59.10
2022-11-16T12:12:45.452Z,58.60
2022-11-16T12:15:12.190Z,59.50
2022-11-16T12:17:57.766Z,59.60
2022-11-16T12:20:33.692Z,59.50
2022-11-16T12:23:12.743Z,59.60
2022-11-16T12:25:42.431Z,59.30
2022-11-16T12:28:09.085Z,59.40
2022-11-16T12:30:43.696Z,58.90
2022-11-16T12:33:13.494Z,58.90
2022-11-16T12:35:58.945Z,59.60
2022-11-16T12:38:38.961Z,59.70
2022-11-16T12:41:05.578Z,59.70
2022-11-16T12:43:51.017Z,59.30
2022-11-16T12:46:17.702Z,59.60
2022-11-16T12:48:44.333Z,59.50
2022-11-16T12:51:11.095Z,58.80
2022-11-16T12:53:47.288Z,58.50
2022-11-16T12:56:17.007Z,59.50
2022-11-16T12:58:46.745Z,59.50
2022-11-16T13:01:28.775Z,59.10
2022-11-16T13:03:58.811Z,59.20
2022-11-16T13:06:31.284Z,59.20
2022-11-16T13:08:57.939Z,60.10
2022-11-16T13:11:29.853Z,59.10
2022-11-16T13:13:58.166Z,58.30
2022-11-16T13:16:25.281Z,59.10
2022-11-16T13:18:52.381Z,59.10
2022-11-16T13:21:28.416Z,59.00
2022-11-16T13:24:12.829Z,59.10
2022-11-16T13:26:54.213Z,59.30
2022-11-16T13:29:28.649Z,59.40
2022-11-16T13:32:06.187Z,58.70
2022-11-16T13:34:34.062Z,58.40
2022-11-16T13:37:00.759Z,59.30
2022-11-16T13:39:46.145Z,59.40
2022-11-16T13:42:13.186Z,59.30
2022-11-16T13:44:40.109Z,59.30
2022-11-16T13:47:17.254Z,59.10
2022-11-16T13:49:56.709Z,59.20
2022-11-16T13:52:31.575Z,59.10
2022-11-16T13:55:12.984Z,58.10
2022-11-16T13:57:41.840Z,58.40
2022-11-16T14:00:08.794Z,59.00
2022-11-16T14:02:36.702Z,59.30
2022-11-16T14:05:12.561Z,59.40
2022-11-16T14:07:44.992Z,59.10
2022-11-16T14:10:12.057Z,58.80
2022-11-16T14:12:38.747Z,58.90
2022-11-16T14:15:19.465Z,58.40
2022-11-16T14:17:52.184Z,58.30
2022-11-16T14:20:34.246Z,59.10
2022-11-16T14:23:03.906Z,59.10
2022-11-16T14:25:33.509Z,59.10
2022-11-16T14:28:13.377Z,58.80
2022-11-16T14:30:56.346Z,58.80
2022-11-16T14:33:29.169Z,58.70
2022-11-16T14:35:55.960Z,58.70
2022-11-16T14:38:25.668Z,58.50
2022-11-16T14:40:58.925Z,59.00
2022-11-16T14:43:39.984Z,59.10
2022-11-16T14:46:09.278Z,59.10
2022-11-16T14:48:43.155Z,58.70
2022-11-16T14:51:12.627Z,58.80
2022-11-16T14:53:46.253Z,59.10
2022-11-16T14:56:14.776Z,58.60
2022-11-16T14:58:58.242Z,58.30
2022-11-16T15:01:27.595Z,58.60
2022-11-16T15:03:56.684Z,58.90
2022-11-16T15:06:24.748Z,58.60
2022-11-16T15:08:54.225Z,58.80
2022-11-16T15:11:50.883Z,58.90
2022-11-16T15:14:22.550Z,58.90
2022-11-16T15:16:50.937Z,58.50
2022-11-16T15:19:18.045Z,58.30
2022-11-16T15:21:52.270Z,58.20
2022-11-16T15:24:30.931Z,58.50
2022-11-16T15:27:18.901Z,58.90
2022-11-16T15:29:45.556Z,58.80
2022-11-16T15:32:16.373Z,59.30
2022-11-16T15:34:45.965Z,59.00
2022-11-16T15:37:15.167Z,58.40
2022-11-16T15:39:42.224Z,58.60
2022-11-16T15:42:13.798Z,58.50
2022-11-16T15:44:41.048Z,58.30
2022-11-16T15:47:10.187Z,58.30
2022-11-16T15:49:38.146Z,58.20
2022-11-16T15:52:04.913Z,58.00
2022-11-16T15:54:55.025Z,58.00
2022-11-16T15:57:22.917Z,58.00
2022-11-16T15:59:50.624Z,57.80
2022-11-16T16:02:28.511Z,57.90
2022-11-16T16:04:55.179Z,57.90
2022-11-16T16:07:38.628Z,58.00
2022-11-16T16:10:20.272Z,57.70
2022-11-16T16:12:47.786Z,57.90
2022-11-16T16:15:24.619Z,58.10
2022-11-16T16:17:52.148Z,58.00
2022-11-16T16:20:20.306Z,57.70
2022-11-16T16:22:47.017Z,58.30
2022-11-16T16:25:29.607Z,58.30
2022-11-16T16:27:56.356Z,58.40
2022-11-16T16:30:23.181Z,58.30
2022-11-16T16:32:53.342Z,58.40
2022-11-16T16:35:21.268Z,58.20
2022-11-16T16:37:48.591Z,58.50
2022-11-16T16:40:16.151Z,58.40
2022-11-16T16:42:43.242Z,58.30
2022-11-16T16:45:15.866Z,58.30
2022-11-16T16:47:42.515Z,58.40
2022-11-16T16:50:09.281Z,58.40
2022-11-16T16:52:35.918Z,58.30
2022-11-16T16:55:02.632Z,58.30
2022-11-16T16:57:29.333Z,58.50
2022-11-16T16:59:56.059Z,58.50
2022-11-16T17:02:22.742Z,58.40
2022-11-16T17:04:49.435Z,58.40
2022-11-16T17:07:16.444Z,58.40
2022-11-16T17:09:43.623Z,58.40
2022-11-16T17:12:11.023Z,58.70
2022-11-16T17:14:37.701Z,59.00
2022-11-16T17:17:04.437Z,58.70
2022-11-16T17:19:31.092Z,58.60
2022-11-16T17:21:58.338Z,58.90
2022-11-16T17:24:25.001Z,58.60
2022-11-16T17:26:51.777Z,58.90
2022-11-16T17:29:18.439Z,59.70
2022-11-16T17:31:46.974Z,59.30
2022-11-16T17:34:14.418Z,59.10
2022-11-16T17:36:41.697Z,59.00
2022-11-16T17:39:08.332Z,59.30
2022-11-16T17:41:35.056Z,59.10
2022-11-16T17:44:01.906Z,58.80
2022-11-16T17:46:29.163Z,59.70
2022-11-16T17:48:56.040Z,59.20
2022-11-16T17:51:24.331Z,60.10
2022-11-16T17:53:51.485Z,60.00
2022-11-16T17:56:21.619Z,59.50
2022-11-16T17:58:50.201Z,59.20
2022-11-16T18:01:17.175Z,59.60
2022-11-16T18:03:44.141Z,59.40
2022-11-16T18:06:15.154Z,59.10
2022-11-16T18:08:42.547Z,59.50
2022-11-16T18:11:15.856Z,59.20
2022-11-16T18:13:43.508Z,58.90
2022-11-16T18:16:12.179Z,58.90
2022-11-16T18:18:39.255Z,59.30
2022-11-16T18:21:06.606Z,58.90
2022-11-16T18:23:34.136Z,59.10
2022-11-16T18:26:01.011Z,59.20
2022-11-16T18:28:27.782Z,58.70
2022-11-16T18:31:01.646Z,58.90
2022-11-16T18:33:30.502Z,58.70
2022-11-16T18:35:57.476Z,59.10
2022-11-16T18:38:24.220Z,58.90
2022-11-16T18:41:09.901Z,58.90
2022-11-16T18:43:37.052Z,59.10
2022-11-16T18:46:03.933Z,58.80
2022-11-16T18:48:30.713Z,58.80
2022-11-16T18:51:01.294Z,58.80
2022-11-16T18:53:28.769Z,58.50
2022-11-16T18:55:58.003Z,59.00
2022-11-16T18:58:49.227Z,59.30
2022-11-16T19:01:14.393Z,58.50
2022-11-16T19:03:41.366Z,58.10
2022-11-16T19:06:08.832Z,58.20
2022-11-16T19:08:36.582Z,58.20
2022-11-16T19:11:04.567Z,58.00
2022-11-16T19:13:31.361Z,57.80
2022-11-16T19:15:58.197Z,57.70
2022-11-16T19:18:24.863Z,57.60
2022-11-16T19:20:51.534Z,57.90
2022-11-16T19:23:18.263Z,57.90
2022-11-16T19:25:45.932Z,58.00
2022-11-16T19:28:12.571Z,57.50
2022-11-16T19:30:39.276Z,57.80
2022-11-16T19:33:05.939Z,57.90
2022-11-16T19:35:32.616Z,57.60
2022-11-16T19:37:59.252Z,57.10
2022-11-16T19:40:25.911Z,57.30
2022-11-16T19:42:52.832Z,57.80
2022-11-16T19:45:19.638Z,57.60
2022-11-16T19:47:46.288Z,57.80
2022-11-16T19:50:12.965Z,57.20
2022-11-16T19:52:39.680Z,57.70
2022-11-16T19:55:06.455Z,58.10
2022-11-16T19:57:35.026Z,58.40
2022-11-16T20:00:01.798Z,58.00
2022-11-16T20:02:28.457Z,58.10
2022-11-16T20:04:55.114Z,58.20
2022-11-16T20:07:21.859Z,57.80
2022-11-16T20:09:53.241Z,57.90
2022-11-16T20:12:20.194Z,58.00
2022-11-16T20:14:46.972Z,57.30
2022-11-16T20:17:13.680Z,58.10
2022-11-16T20:19:40.375Z,58.40
2022-11-16T20:22:08.392Z,58.10
2022-11-16T20:24:35.073Z,57.30
2022-11-16T20:27:01.839Z,57.90
2022-11-16T20:29:28.448Z,57.90
2022-11-16T20:31:55.165Z,57.80
2022-11-16T20:34:22.260Z,57.30
2022-11-16T20:36:50.777Z,58.10
2022-11-16T20:39:18.395Z,57.00
2022-11-16T20:41:45.388Z,58.10
2022-11-16T20:44:16.619Z,58.40
2022-11-16T20:46:45.103Z,57.70
2022-11-16T20:49:12.172Z,57.40
2022-11-16T20:51:38.901Z,57.40
2022-11-16T20:54:05.667Z,58.20
2022-11-16T20:56:32.621Z,57.70
2022-11-16T20:58:59.618Z,58.00
2022-11-16T21:01:33.483Z,57.70
2022-11-16T21:04:04.367Z,57.40
2022-11-16T21:06:31.600Z,58.70
2022-11-16T21:08:58.323Z,57.80
2022-11-16T21:11:29.880Z,58.20
2022-11-16T21:14:15.304Z,57.90
2022-11-16T21:16:41.966Z,57.90
2022-11-16T21:19:08.809Z,58.20
2022-11-16T21:21:35.520Z,58.30
2022-11-16T21:24:02.347Z,58.00
2022-11-16T21:26:29.989Z,58.00
2022-11-16T21:28:57.083Z,58.60
2022-11-16T21:31:26.144Z,58.20
2022-11-16T21:33:53.520Z,57.70
2022-11-16T21:36:27.054Z,58.20
2022-11-16T21:38:54.079Z,57.90
2022-11-16T21:41:21.533Z,58.40
2022-11-16T21:43:48.349Z,58.30
2022-11-16T21:46:16.362Z,57.40
2022-11-16T21:48:43.253Z,57.20
2022-11-16T21:51:11.197Z,57.40
2022-11-16T21:53:38.307Z,57.70
2022-11-16T21:56:05.749Z,57.20
2022-11-16T21:58:32.516Z,56.50
2022-11-16T22:01:00.225Z,56.90
2022-11-16T22:03:28.124Z,57.40
2022-11-16T22:06:14.018Z,55.80
2022-11-16T22:08:40.980Z,55.60
2022-11-16T22:11:08.264Z,55.80
2022-11-16T22:13:35.656Z,56.20
2022-11-16T22:16:09.713Z,55.90
2022-11-16T22:18:36.817Z,56.70
2022-11-16T22:21:03.591Z,56.40
2022-11-16T22:23:31.194Z,56.30
2022-11-16T22:26:05.308Z,56.10
2022-11-16T22:28:32.239Z,56.30
2022-11-16T22:31:06.175Z,56.10
2022-11-16T22:33:34.354Z,57.00
2022-11-16T22:36:01.722Z,57.20
2022-11-16T22:38:28.457Z,56.60
2022-11-16T22:40:56.230Z,56.60
2022-11-16T22:43:24.713Z,56.40
2022-11-16T22:45:51.441Z,56.30
2022-11-16T22:48:18.227Z,56.70
2022-11-16T22:50:44.945Z,56.50
2022-11-16T22:53:11.756Z,56.80
2022-11-16T22:55:38.822Z,56.30
2022-11-16T22:58:05.629Z,56.80
2022-11-16T23:00:37.515Z,57.10
2022-11-16T23:03:07.564Z,57.10
2022-11-16T23:05:34.297Z,57.00
2022-11-16T23:08:01.026Z,57.00
2022-11-16T23:10:28.943Z,57.20
2022-11-16T23:13:14.450Z,56.70
2022-11-16T23:15:50.262Z,55.90
2022-11-16T23:18:17.393Z,56.40
2022-11-16T23:21:02.773Z,57.10
2022-11-16T23:23:47.927Z,56.90
2022-11-16T23:26:37.744Z,57.60
2022-11-16T23:29:05.417Z,56.80
2022-11-16T23:31:32.064Z,56.40
2022-11-16T23:33:58.720Z,55.60
2022-11-16T23:36:25.359Z,56.20
2022-11-16T23:38:52.022Z,56.20
2022-11-16T23:41:37.389Z,55.70
2022-11-16T23:44:04.170Z,56.50
2022-11-16T23:46:31.980Z,56.20
2022-11-16T23:48:59.096Z,56.80
2022-11-16T23:51:25.801Z,55.30
2022-11-16T23:53:53.025Z,56.00
2022-11-16T23:56:20.299Z,56.10
2022-11-16T23:58:47.411Z,56.00
